Time;durP1;ratioP1;P1;durP2;ratioP2;P2;SDS_P1;SDS_P2;PMS_P1;PMS_P2;Temp;Humidity;BMP_temperature;BMP_pressure;BME280_temperature;BME280_humidity;BME280_pressure;Samples;Min_cycle;Max_cycle;Signal;HPM_P1;HPM_P2
2021/01/18 00:01:28;;;;;;;10.15;4.95;;;3.20;99.90;;;;;;5022178;28;20547;-60
2021/01/18 00:11:14;;;;;;;7.45;3.70;;;3.10;99.90;;;;;;5013317;28;20193;-61
2021/01/18 00:17:06;;;;;;;3.75;3.03;;;3.10;99.90;;;;;;5007177;28;20229;-61
2021/01/18 00:19:32;;;;;;;8.05;4.85;;;3.20;99.90;;;;;;5013460;28;20186;-61
2021/01/18 00:21:57;;;;;;;1.80;0.30;;;3.20;99.90;;;;;;5012706;28;20266;-60
2021/01/18 00:24:23;;;;;;;1.70;0.20;;;3.20;99.90;;;;;;5007597;28;20195;-60
2021/01/18 00:26:49;;;;;;;2.13;0.80;;;3.20;99.90;;;;;;5018785;28;20515;-61
2021/01/18 00:29:15;;;;;;;4.87;4.53;;;3.20;99.90;;;;;;5021959;28;20642;-61
2021/01/18 00:31:45;;;;;;;13.45;7.93;;;3.20;99.90;;;;;;5023343;28;20197;-61
2021/01/18 00:34:11;;;;;;;2.95;1.50;;;3.20;99.90;;;;;;5014268;28;20203;-61
2021/01/18 00:36:44;;;;;;;1.75;0.20;;;3.20;99.90;;;;;;5019229;28;20187;-61
2021/01/18 00:39:10;;;;;;;1.80;0.20;;;3.20;99.90;;;;;;5016603;28;20175;-61
2021/01/18 00:41:40;;;;;;;13.87;6.20;;;3.30;99.90;;;;;;5014383;28;20179;-61
2021/01/18 00:44:06;;;;;;;4.28;2.70;;;3.30;99.90;;;;;;5015656;28;20194;-60
2021/01/18 00:46:32;;;;;;;6.90;4.33;;;3.30;99.90;;;;;;5023852;28;20196;-60
2021/01/18 00:48:58;;;;;;;7.23;3.80;;;3.30;99.90;;;;;;5015789;28;21030;-60
2021/01/18 00:51:23;;;;;;;8.97;5.77;;;3.30;99.90;;;;;;5020155;28;20865;-60
2021/01/18 00:53:49;;;;;;;1.80;0.43;;;3.30;99.90;;;;;;5015509;28;20198;-61
2021/01/18 00:56:14;;;;;;;2.27;0.87;;;3.30;99.90;;;;;;5016344;28;20190;-60
2021/01/18 00:58:41;;;;;;;2.30;1.90;;;3.30;99.90;;;;;;5021863;28;20242;-61
2021/01/18 01:01:07;;;;;;;1.70;0.20;;;3.30;99.90;;;;;;5018955;28;20189;-61
2021/01/18 01:03:32;;;;;;;1.83;0.40;;;3.40;99.90;;;;;;5018530;28;20182;-61
2021/01/18 01:05:58;;;;;;;1.80;0.20;;;3.40;99.90;;;;;;5023248;28;20195;-61
2021/01/18 01:08:23;;;;;;;1.73;0.20;;;3.40;99.90;;;;;;5014925;28;20214;-61
2021/01/18 01:10:49;;;;;;;1.80;0.20;;;3.40;99.90;;;;;;5018091;28;20191;-60
2021/01/18 01:13:14;;;;;;;1.80;0.20;;;3.50;99.90;;;;;;5015593;28;20656;-61
2021/01/18 01:15:40;;;;;;;3.07;1.03;;;3.50;99.90;;;;;;5017471;28;20627;-60
2021/01/18 01:18:05;;;;;;;3.13;1.70;;;3.50;99.90;;;;;;5014405;28;21492;-60
2021/01/18 01:20:31;;;;;;;6.33;3.80;;;3.50;99.90;;;;;;5019179;28;20185;-60
2021/01/18 01:22:57;;;;;;;2.43;1.33;;;3.40;99.90;;;;;;5015257;28;20187;-61
2021/01/18 01:25:25;;;;;;;1.70;0.20;;;3.40;99.90;;;;;;5023424;28;20228;-61
2021/01/18 01:27:52;;;;;;;2.03;0.50;;;3.30;99.90;;;;;;5012797;28;20224;-60
2021/01/18 01:30:19;;;;;;;1.75;0.20;;;3.40;99.90;;;;;;5018566;28;20182;-61
2021/01/18 01:32:47;;;;;;;2.83;1.13;;;3.40;99.90;;;;;;5023718;28;20183;-60
2021/01/18 01:35:15;;;;;;;1.73;0.20;;;3.40;99.90;;;;;;5017098;28;20202;-60
2021/01/18 01:37:40;;;;;;;1.70;0.20;;;3.30;99.90;;;;;;5012778;28;20691;-60
2021/01/18 01:40:08;;;;;;;2.40;0.50;;;3.40;99.90;;;;;;5017479;28;20285;-60
2021/01/18 01:42:35;;;;;;;1.75;0.20;;;3.40;99.90;;;;;;5016086;28;20588;-61
2021/01/18 01:45:01;;;;;;;7.30;4.55;;;3.40;99.90;;;;;;5014743;28;20191;-60
2021/01/18 01:47:41;;;;;;;3.40;1.27;;;3.40;99.90;;;;;;5019998;28;20208;-60
2021/01/18 01:50:24;;;;;;;2.08;0.55;;;3.40;99.90;;;;;;5012527;28;20433;-61
2021/01/18 01:52:56;;;;;;;2.97;1.80;;;3.40;99.90;;;;;;5013893;28;20519;-61
2021/01/18 01:55:24;;;;;;;2.85;1.02;;;3.40;99.90;;;;;;5020125;28;20206;-61
2021/01/18 01:57:52;;;;;;;1.70;0.20;;;3.40;99.90;;;;;;5028182;28;20403;-62
2021/01/18 02:00:18;;;;;;;1.75;0.20;;;3.40;99.90;;;;;;5033983;28;20183;-61
2021/01/18 02:02:44;;;;;;;10.55;4.57;;;3.40;99.90;;;;;;5040557;28;20205;-61
2021/01/18 02:05:14;;;;;;;1.70;0.20;;;3.40;99.90;;;;;;5037201;28;20246;-60
2021/01/18 02:07:40;;;;;;;1.70;0.20;;;3.40;99.90;;;;;;5031654;28;20198;-61
2021/01/18 02:10:06;;;;;;;6.07;3.57;;;3.40;99.90;;;;;;5016082;28;20188;-60
2021/01/18 02:12:32;;;;;;;2.33;0.50;;;3.40;99.90;;;;;;5014821;28;20437;-61
2021/01/18 02:15:12;;;;;;;1.90;0.50;;;3.40;99.90;;;;;;5012656;28;20218;-61
2021/01/18 02:17:57;;;;;;;1.90;0.45;;;3.40;99.90;;;;;;5015105;28;20685;-61
2021/01/18 02:20:41;;;;;;;1.70;0.20;;;3.50;99.90;;;;;;5012844;28;20186;-60
2021/01/18 02:23:43;;;;;;;1.70;0.20;;;3.50;99.90;;;;;;5012557;28;20657;-61
2021/01/18 02:26:39;;;;;;;3.03;1.15;;;3.50;99.90;;;;;;5013307;28;20205;-60
2021/01/18 02:29:36;;;;;;;1.80;0.30;;;3.50;99.90;;;;;;5012154;28;20258;-61
2021/01/18 02:32:05;;;;;;;2.20;1.10;;;3.40;99.90;;;;;;5001107;28;20206;-61
2021/01/18 02:35:02;;;;;;;1.80;0.20;;;3.40;99.90;;;;;;5011365;28;20268;-60
2021/01/18 02:37:47;;;;;;;5.88;3.03;;;3.40;99.90;;;;;;5006780;28;20202;-60
2021/01/18 02:40:22;;;;;;;6.03;2.42;;;3.40;99.90;;;;;;5012143;28;20530;-60
2021/01/18 02:42:51;;;;;;;9.38;4.28;;;3.40;99.90;;;;;;5012047;28;20182;-61
2021/01/18 02:45:21;;;;;;;1.75;0.20;;;3.40;99.90;;;;;;5014987;28;20582;-61
2021/01/18 02:47:48;;;;;;;1.98;0.93;;;3.40;99.90;;;;;;5016135;28;20738;-61
2021/01/18 02:50:14;;;;;;;7.60;4.30;;;3.50;99.90;;;;;;5016267;28;20194;-61
2021/01/18 02:52:41;;;;;;;2.15;0.93;;;3.50;99.90;;;;;;5015520;28;20186;-60
2021/01/18 02:55:08;;;;;;;1.75;0.20;;;3.50;99.90;;;;;;5016010;28;20573;-60
2021/01/18 02:57:38;;;;;;;5.95;1.50;;;3.50;99.90;;;;;;5015676;28;20558;-61
2021/01/18 03:00:07;;;;;;;1.75;0.20;;;3.50;99.90;;;;;;5015901;28;20183;-61
2021/01/18 03:03:00;;;;;;;1.73;0.20;;;3.50;99.90;;;;;;5011079;28;20250;-60
2021/01/18 03:05:37;;;;;;;1.80;0.20;;;3.50;99.90;;;;;;5015661;28;20182;-61
2021/01/18 03:08:14;;;;;;;7.38;5.38;;;3.60;99.90;;;;;;5014736;28;20206;-60
2021/01/18 03:10:42;;;;;;;8.30;3.10;;;3.50;99.90;;;;;;5015817;28;20190;-60
2021/01/18 03:13:31;;;;;;;5.28;2.72;;;3.50;99.90;;;;;;5016606;28;20183;-61
2021/01/18 03:16:02;;;;;;;1.73;0.20;;;3.50;99.90;;;;;;5013499;28;20237;-60
2021/01/18 03:18:32;;;;;;;17.25;3.25;;;3.50;99.90;;;;;;5017296;28;20276;-61
2021/01/18 03:20:58;;;;;;;1.70;0.20;;;3.50;99.90;;;;;;5015342;28;20206;-61
2021/01/18 03:23:24;;;;;;;8.30;5.63;;;3.50;99.90;;;;;;5015009;28;20645;-60
2021/01/18 03:25:53;;;;;;;1.90;0.43;;;3.50;99.90;;;;;;5015515;28;20221;-61
2021/01/18 03:28:21;;;;;;;1.77;0.28;;;3.50;99.90;;;;;;5014740;28;20237;-60
2021/01/18 03:30:46;;;;;;;5.07;3.47;;;3.50;99.90;;;;;;5015205;28;20190;-60
2021/01/18 03:33:13;;;;;;;1.80;0.20;;;3.60;99.90;;;;;;5020511;28;20189;-60
2021/01/18 03:35:39;;;;;;;2.65;1.60;;;3.60;99.90;;;;;;5016286;28;20440;-60
2021/01/18 03:38:05;;;;;;;2.67;1.03;;;3.60;99.90;;;;;;5014504;28;20214;-61
2021/01/18 03:40:30;;;;;;;1.73;0.20;;;3.60;99.90;;;;;;5015013;28;20500;-61
2021/01/18 03:43:04;;;;;;;1.70;0.20;;;3.60;99.90;;;;;;5015877;28;20476;-61
2021/01/18 03:45:36;;;;;;;3.60;0.68;;;3.60;99.90;;;;;;5015259;28;20210;-61
2021/01/18 03:48:04;;;;;;;1.80;0.20;;;3.60;99.90;;;;;;5014599;28;20210;-61
2021/01/18 03:50:29;;;;;;;1.80;0.30;;;3.60;99.90;;;;;;5014803;28;20187;-61
2021/01/18 03:52:55;;;;;;;1.77;0.20;;;3.60;99.90;;;;;;5014044;28;20225;-60
2021/01/18 03:55:21;;;;;;;1.70;0.20;;;3.70;99.90;;;;;;5014836;28;20230;-63
2021/01/18 03:57:48;;;;;;;3.33;1.13;;;3.70;99.90;;;;;;5014704;28;20281;-59
2021/01/18 04:00:15;;;;;;;2.95;0.70;;;3.60;99.90;;;;;;5014465;28;20442;-61
2021/01/18 04:02:42;;;;;;;3.35;2.55;;;3.60;99.90;;;;;;5014916;28;20193;-60
2021/01/18 04:05:09;;;;;;;1.73;0.20;;;3.60;99.90;;;;;;5015961;28;20186;-61
2021/01/18 04:07:34;;;;;;;1.70;0.30;;;3.60;99.90;;;;;;5013934;28;20567;-61
2021/01/18 04:10:00;;;;;;;1.77;0.30;;;3.60;99.90;;;;;;5015076;28;20199;-60
2021/01/18 04:12:25;;;;;;;8.00;3.77;;;3.60;99.90;;;;;;5013834;28;20430;-62
2021/01/18 04:14:51;;;;;;;8.00;4.17;;;3.60;99.90;;;;;;5015000;28;20715;-61
2021/01/18 04:17:17;;;;;;;1.70;0.20;;;3.50;99.90;;;;;;5017199;28;20298;-60
2021/01/18 04:19:43;;;;;;;7.40;1.90;;;3.60;99.90;;;;;;5013908;28;20269;-61
2021/01/18 04:22:08;;;;;;;1.70;0.20;;;3.60;99.90;;;;;;5015586;28;20777;-60
2021/01/18 04:24:34;;;;;;;1.73;0.20;;;3.60;99.90;;;;;;5014159;28;20453;-60
2021/01/18 04:27:00;;;;;;;8.50;3.17;;;3.60;99.90;;;;;;5012083;28;20265;-60
2021/01/18 04:29:26;;;;;;;6.85;3.25;;;3.70;99.90;;;;;;5014100;28;20445;-60
2021/01/18 04:31:52;;;;;;;1.77;0.20;;;3.60;99.90;;;;;;5014552;28;20186;-60
2021/01/18 04:34:18;;;;;;;1.77;0.20;;;3.60;99.90;;;;;;5017837;28;20210;-61
2021/01/18 04:36:43;;;;;;;3.57;2.60;;;3.70;99.90;;;;;;5013553;28;20202;-60
2021/01/18 04:39:10;;;;;;;1.70;0.20;;;3.70;99.90;;;;;;5012763;28;20213;-60
2021/01/18 04:41:37;;;;;;;5.10;2.15;;;3.70;99.90;;;;;;5013469;28;20199;-60
2021/01/18 04:44:06;;;;;;;3.35;1.38;;;3.70;99.90;;;;;;5014097;28;20210;-61
2021/01/18 04:46:38;;;;;;;2.53;0.75;;;3.70;99.90;;;;;;5013605;28;20206;-61
2021/01/18 04:49:04;;;;;;;5.10;2.67;;;3.60;99.90;;;;;;5013037;28;20210;-61
2021/01/18 04:51:39;;;;;;;4.77;1.90;;;3.60;99.90;;;;;;5014568;28;20183;-61
2021/01/18 04:54:11;;;;;;;2.15;0.30;;;3.60;99.90;;;;;;5012738;28;20429;-61
2021/01/18 04:57:10;;;;;;;2.63;1.98;;;3.60;99.90;;;;;;5013115;28;20229;-61
2021/01/18 04:59:44;;;;;;;1.85;0.32;;;3.60;99.90;;;;;;5009241;28;20187;-61
2021/01/18 05:02:18;;;;;;;2.90;1.00;;;3.60;99.90;;;;;;5014141;28;20185;-60
2021/01/18 05:04:46;;;;;;;1.80;0.30;;;3.60;99.90;;;;;;5015668;28;20198;-60
2021/01/18 05:07:32;;;;;;;1.70;0.20;;;3.60;99.90;;;;;;5010368;28;20214;-60
2021/01/18 05:10:03;;;;;;;10.63;3.88;;;3.60;99.90;;;;;;5003606;28;20191;-60
2021/01/18 05:12:30;;;;;;;1.80;0.30;;;3.60;99.90;;;;;;5012381;28;20185;-61
2021/01/18 05:14:58;;;;;;;2.97;0.98;;;3.60;99.90;;;;;;5013264;28;20293;-61
2021/01/18 05:17:43;;;;;;;1.73;0.20;;;3.60;99.90;;;;;;5016049;28;20214;-61
2021/01/18 05:20:19;;;;;;;5.80;2.58;;;3.60;99.90;;;;;;5012476;28;20190;-61
2021/01/18 05:22:52;;;;;;;3.70;2.15;;;3.70;99.90;;;;;;5009508;28;20189;-60
2021/01/18 05:25:19;;;;;;;1.77;0.28;;;3.60;99.90;;;;;;5013316;28;20214;-61
2021/01/18 05:27:57;;;;;;;1.70;0.20;;;3.60;99.90;;;;;;5011194;28;20214;-60
2021/01/18 05:30:23;;;;;;;7.15;1.27;;;3.70;99.90;;;;;;5011793;28;20182;-60
2021/01/18 05:33:00;;;;;;;1.80;0.20;;;3.60;99.90;;;;;;5017404;28;20190;-60
2021/01/18 05:35:26;;;;;;;2.20;0.77;;;3.60;99.90;;;;;;5012833;28;20488;-61
2021/01/18 05:37:58;;;;;;;1.77;0.20;;;3.60;99.90;;;;;;5014225;28;20665;-61
2021/01/18 05:40:24;;;;;;;1.77;0.30;;;3.60;99.90;;;;;;5013350;28;20179;-60
2021/01/18 05:42:51;;;;;;;3.08;1.80;;;3.50;99.90;;;;;;5012433;28;20233;-60
2021/01/18 05:45:30;;;;;;;1.75;0.20;;;3.50;99.90;;;;;;5013991;28;20860;-61
2021/01/18 05:47:57;;;;;;;1.80;0.30;;;3.50;99.90;;;;;;5013075;28;20670;-60
2021/01/18 05:50:24;;;;;;;3.00;1.52;;;3.40;99.90;;;;;;5012281;28;20190;-60
2021/01/18 05:52:50;;;;;;;1.70;0.20;;;3.40;99.90;;;;;;5013143;28;20214;-66
2021/01/18 05:55:30;;;;;;;5.27;2.20;;;3.40;99.90;;;;;;5013821;28;20229;-61
2021/01/18 05:58:01;;;;;;;2.65;0.80;;;3.40;99.90;;;;;;5014841;28;20455;-64
2021/01/18 06:00:29;;;;;;;4.07;3.30;;;3.30;99.90;;;;;;5022701;28;20187;-61
2021/01/18 06:02:55;;;;;;;1.80;0.20;;;3.30;99.90;;;;;;5031134;28;20186;-63
2021/01/18 06:05:26;;;;;;;4.28;1.58;;;3.30;99.90;;;;;;5032355;28;20186;-62
2021/01/18 06:07:52;;;;;;;2.38;1.30;;;3.30;99.90;;;;;;5029888;28;20214;-61
2021/01/18 06:10:18;;;;;;;2.30;0.83;;;3.30;99.90;;;;;;5023070;28;20840;-61
2021/01/18 06:12:44;;;;;;;1.70;0.20;;;3.30;99.90;;;;;;5016843;28;20444;-61
2021/01/18 06:15:14;;;;;;;4.80;2.03;;;3.30;99.90;;;;;;5017218;28;20473;-61
2021/01/18 06:17:51;;;;;;;1.77;0.20;;;3.30;99.90;;;;;;5016639;28;20214;-61
2021/01/18 06:20:27;;;;;;;13.45;4.70;;;3.30;99.90;;;;;;5012018;28;20244;-60
2021/01/18 06:22:55;;;;;;;2.15;1.20;;;3.30;99.90;;;;;;5012407;28;20264;-61
2021/01/18 06:25:22;;;;;;;1.77;0.20;;;3.30;99.90;;;;;;5013001;28;20442;-60
2021/01/18 06:27:48;;;;;;;2.35;0.80;;;3.30;99.90;;;;;;5011758;28;20207;-60
2021/01/18 06:30:26;;;;;;;1.80;0.60;;;3.30;99.90;;;;;;5012694;28;20313;-61
2021/01/18 06:32:54;;;;;;;1.70;0.20;;;3.40;99.90;;;;;;5018601;28;20281;-61
2021/01/18 06:35:22;;;;;;;11.85;4.45;;;3.40;99.90;;;;;;5012317;28;20237;-60
2021/01/18 06:37:54;;;;;;;3.83;1.80;;;3.30;99.90;;;;;;5012250;28;20244;-61
2021/01/18 06:40:45;;;;;;;2.22;1.38;;;3.30;99.90;;;;;;5011739;28;20183;-61
2021/01/18 06:43:11;;;;;;;2.40;0.52;;;3.40;99.90;;;;;;5011580;28;20202;-61
2021/01/18 06:45:41;;;;;;;2.13;0.63;;;3.40;99.90;;;;;;5012951;28;20187;-61
2021/01/18 06:48:08;;;;;;;2.85;1.48;;;3.30;99.90;;;;;;5015738;28;20223;-61
2021/01/18 06:50:36;;;;;;;4.57;1.23;;;3.30;99.90;;;;;;5012954;28;20190;-60
2021/01/18 06:53:10;;;;;;;1.73;0.20;;;3.30;99.90;;;;;;5013928;28;20199;-61
2021/01/18 06:55:44;;;;;;;3.60;1.08;;;3.30;99.90;;;;;;5012128;28;20260;-60
2021/01/18 06:58:33;;;;;;;6.85;2.03;;;3.30;99.90;;;;;;5011709;28;20701;-60
2021/01/18 07:00:59;;;;;;;3.58;2.42;;;3.30;99.90;;;;;;5010684;28;20187;-61
2021/01/18 07:03:40;;;;;;;1.70;0.20;;;3.30;99.90;;;;;;5014801;28;20262;-61
2021/01/18 07:06:31;;;;;;;9.98;4.78;;;3.30;99.90;;;;;;5011707;28;20191;-61
2021/01/18 07:09:03;;;;;;;5.97;3.10;;;3.30;99.90;;;;;;5011253;28;20248;-61
2021/01/18 07:11:29;;;;;;;5.95;2.35;;;3.30;99.90;;;;;;5013691;28;20576;-61
2021/01/18 07:13:55;;;;;;;1.73;0.20;;;3.30;99.90;;;;;;4994690;28;20217;-61
2021/01/18 07:16:25;;;;;;;1.70;0.20;;;3.30;99.90;;;;;;5012109;28;20191;-60
2021/01/18 07:18:56;;;;;;;10.63;2.90;;;3.40;99.90;;;;;;5013890;28;20231;-61
2021/01/18 07:21:26;;;;;;;5.45;3.10;;;3.30;99.90;;;;;;5010899;28;20193;-61
2021/01/18 07:24:01;;;;;;;1.80;0.38;;;3.30;99.90;;;;;;5011507;28;20325;-61
2021/01/18 07:26:32;;;;;;;7.55;3.03;;;3.30;99.90;;;;;;5011128;28;20541;-60
2021/01/18 07:29:03;;;;;;;3.97;2.53;;;3.40;99.90;;;;;;5012159;28;20276;-61
2021/01/18 07:31:30;;;;;;;5.93;1.05;;;3.30;99.90;;;;;;5015492;28;20171;-61
2021/01/18 07:33:56;;;;;;;1.70;0.20;;;3.30;99.90;;;;;;5015684;28;20187;-61
2021/01/18 07:36:29;;;;;;;1.93;0.40;;;3.40;99.90;;;;;;5016090;28;20185;-61
2021/01/18 07:38:56;;;;;;;2.10;0.45;;;3.40;99.90;;;;;;5014503;28;20452;-61
2021/01/18 07:41:30;;;;;;;3.55;1.65;;;3.30;99.90;;;;;;5015444;28;20182;-60
2021/01/18 07:43:55;;;;;;;5.25;2.83;;;3.30;99.90;;;;;;5015170;28;20641;-60
2021/01/18 07:46:29;;;;;;;3.33;1.13;;;3.30;99.90;;;;;;5013999;28;20218;-61
2021/01/18 07:48:57;;;;;;;1.75;0.20;;;3.30;99.90;;;;;;5012744;28;20205;-61
2021/01/18 07:51:24;;;;;;;1.70;0.20;;;3.40;99.90;;;;;;5014555;28;20239;-60
2021/01/18 07:53:50;;;;;;;6.18;1.63;;;3.40;99.90;;;;;;5013554;28;20198;-60
2021/01/18 07:56:30;;;;;;;2.07;0.50;;;3.50;99.90;;;;;;5014924;28;20744;-61
2021/01/18 07:59:04;;;;;;;1.90;0.30;;;3.50;99.90;;;;;;5013041;28;20435;-61
2021/01/18 08:01:31;;;;;;;4.53;2.47;;;3.50;99.90;;;;;;5014632;28;20224;-61
2021/01/18 08:04:25;;;;;;;2.00;0.30;;;3.50;99.90;;;;;;5013992;28;20719;-59
2021/01/18 08:07:09;;;;;;;2.15;0.65;;;3.50;99.90;;;;;;5019685;28;20190;-60
2021/01/18 08:09:37;;;;;;;2.13;1.42;;;3.50;99.90;;;;;;5013801;28;20218;-60
2021/01/18 08:12:30;;;;;;;1.70;0.20;;;3.50;99.90;;;;;;5014557;28;20178;-60
2021/01/18 08:14:57;;;;;;;3.80;1.50;;;3.40;99.90;;;;;;5014148;28;20217;-60
2021/01/18 08:17:22;;;;;;;1.90;0.50;;;3.40;99.90;;;;;;5014249;28;20238;-61
2021/01/18 08:20:11;;;;;;;2.10;0.77;;;3.40;99.90;;;;;;5015134;28;20302;-60
2021/01/18 08:22:37;;;;;;;7.13;3.60;;;3.40;99.90;;;;;;5015828;28;20669;-61
2021/01/18 08:25:04;;;;;;;1.73;0.20;;;3.40;99.90;;;;;;5013199;28;20194;-61
2021/01/18 08:27:43;;;;;;;1.70;0.20;;;3.40;99.90;;;;;;5017698;28;20464;-61
2021/01/18 08:30:14;;;;;;;2.95;0.95;;;3.50;99.90;;;;;;5018212;28;20178;-61
2021/01/18 08:32:41;;;;;;;13.05;2.15;;;3.50;99.90;;;;;;5014063;28;20254;-62
2021/01/18 08:35:20;;;;;;;1.73;0.28;;;3.50;99.90;;;;;;5016798;28;20677;-61
2021/01/18 08:37:54;;;;;;;2.00;0.82;;;3.50;99.90;;;;;;5016620;28;20206;-60
2021/01/18 08:40:20;;;;;;;10.63;1.05;;;3.50;99.90;;;;;;5017474;28;20613;-60
2021/01/18 08:42:54;;;;;;;1.75;0.20;;;3.60;99.90;;;;;;5009485;28;20194;-60
2021/01/18 08:45:29;;;;;;;2.00;0.68;;;3.60;99.90;;;;;;5015723;28;20258;-59
2021/01/18 08:47:59;;;;;;;3.72;2.10;;;3.60;99.90;;;;;;5013132;28;20232;-61
2021/01/18 08:50:36;;;;;;;2.45;1.02;;;3.60;99.90;;;;;;5013670;28;20709;-60
2021/01/18 08:53:24;;;;;;;1.73;0.20;;;3.60;99.90;;;;;;5015982;28;20182;-61
2021/01/18 08:55:53;;;;;;;1.90;0.30;;;3.60;99.90;;;;;;5017388;28;20209;-63
2021/01/18 08:58:38;;;;;;;1.70;0.20;;;3.60;99.90;;;;;;5013854;28;20297;-60
2021/01/18 09:01:12;;;;;;;2.00;0.77;;;3.60;99.90;;;;;;5015643;28;20234;-60
2021/01/18 09:03:38;;;;;;;10.52;2.55;;;3.60;99.90;;;;;;5014684;28;20232;-60
2021/01/18 09:06:04;;;;;;;1.70;0.20;;;3.50;99.90;;;;;;5012977;28;20230;-60
2021/01/18 09:08:30;;;;;;;1.90;0.60;;;3.60;99.90;;;;;;5016392;28;20439;-60
2021/01/18 09:11:04;;;;;;;11.93;4.03;;;3.60;99.90;;;;;;5018415;28;20189;-60
2021/01/18 09:13:31;;;;;;;5.70;2.15;;;3.60;99.90;;;;;;5014900;28;20181;-61
2021/01/18 09:15:58;;;;;;;2.08;0.75;;;3.60;99.90;;;;;;5013284;28;20272;-60
2021/01/18 09:18:25;;;;;;;4.22;1.98;;;3.60;99.90;;;;;;4993781;28;549160;-60
2021/01/18 09:20:56;;;;;;;5.10;2.58;;;3.60;99.90;;;;;;5016004;28;20646;-60
2021/01/18 09:23:22;;;;;;;6.90;4.22;;;3.60;99.90;;;;;;5013477;28;20286;-60
2021/01/18 09:26:04;;;;;;;4.75;2.88;;;3.60;99.90;;;;;;5013568;28;21116;-61
2021/01/18 09:28:29;;;;;;;1.80;0.30;;;3.60;99.90;;;;;;5012036;28;20234;-64
2021/01/18 09:30:55;;;;;;;1.80;0.40;;;3.60;99.90;;;;;;5013483;28;20190;-60
2021/01/18 09:33:26;;;;;;;1.80;0.40;;;3.60;99.90;;;;;;5014352;28;20278;-61
2021/01/18 09:35:52;;;;;;;1.77;0.30;;;3.70;99.90;;;;;;5012343;28;20879;-60
2021/01/18 09:38:17;;;;;;;1.70;0.20;;;3.70;99.90;;;;;;5013679;28;20195;-61
2021/01/18 09:40:43;;;;;;;8.27;4.60;;;3.70;99.90;;;;;;5015428;28;20254;-61
2021/01/18 09:43:12;;;;;;;8.60;1.57;;;3.60;99.90;;;;;;5014526;28;20192;-61
2021/01/18 09:45:38;;;;;;;7.07;2.85;;;3.70;99.90;;;;;;5014130;28;20187;-60
2021/01/18 09:48:06;;;;;;;1.73;0.20;;;3.70;99.90;;;;;;5011617;28;20221;-61
2021/01/18 09:50:32;;;;;;;2.75;2.45;;;3.80;99.90;;;;;;5013957;28;20195;-60
2021/01/18 09:52:58;;;;;;;6.70;3.25;;;3.80;99.90;;;;;;5012348;28;20190;-60
2021/01/18 09:55:32;;;;;;;1.73;0.23;;;3.80;99.90;;;;;;5013753;28;20698;-62
2021/01/18 09:58:16;;;;;;;1.77;0.35;;;3.90;99.90;;;;;;5030466;28;20521;-63
2021/01/18 10:00:44;;;;;;;3.25;1.85;;;3.90;99.90;;;;;;5027686;28;20173;-63
2021/01/18 10:03:10;;;;;;;1.73;0.30;;;3.80;99.90;;;;;;5034616;28;20209;-62
2021/01/18 10:05:47;;;;;;;1.80;0.20;;;3.90;99.90;;;;;;5031879;28;20175;-61
2021/01/18 10:08:17;;;;;;;2.55;0.85;;;4.00;99.90;;;;;;5014685;28;20449;-60
2021/01/18 10:10:48;;;;;;;6.13;3.00;;;4.00;99.90;;;;;;5017475;28;20206;-61
2021/01/18 10:13:19;;;;;;;2.80;1.38;;;3.90;99.90;;;;;;5013586;28;20654;-61
2021/01/18 10:15:48;;;;;;;1.80;0.35;;;4.00;99.90;;;;;;5011039;28;20206;-60
2021/01/18 10:18:49;;;;;;;10.32;5.97;;;4.10;99.90;;;;;;5011389;28;20701;-60
2021/01/18 10:21:15;;;;;;;6.32;3.85;;;4.10;99.90;;;;;;5010364;28;20222;-60
2021/01/18 10:23:46;;;;;;;1.80;0.38;;;4.00;99.90;;;;;;5013591;28;20301;-61
2021/01/18 10:26:21;;;;;;;7.35;3.17;;;4.00;99.90;;;;;;5011952;28;20755;-60
2021/01/18 10:28:51;;;;;;;1.70;0.20;;;4.00;99.90;;;;;;5011847;28;20260;-60
2021/01/18 10:31:18;;;;;;;1.70;0.30;;;4.10;99.90;;;;;;5013337;28;20245;-61
2021/01/18 10:33:44;;;;;;;2.38;1.17;;;4.10;99.90;;;;;;5015089;28;20539;-61
2021/01/18 10:36:09;;;;;;;2.90;1.30;;;4.10;99.90;;;;;;5012991;28;20237;-61
2021/01/18 10:38:38;;;;;;;7.60;3.30;;;4.20;99.90;;;;;;5015576;28;20209;-60
2021/01/18 10:41:05;;;;;;;5.60;3.08;;;4.20;99.90;;;;;;5013230;28;20290;-60
2021/01/18 10:43:31;;;;;;;5.03;2.47;;;4.10;99.90;;;;;;5012148;28;20186;-60
2021/01/18 10:45:58;;;;;;;6.03;3.37;;;4.20;99.90;;;;;;5012836;28;20677;-60
2021/01/18 10:48:32;;;;;;;3.95;1.98;;;4.30;99.90;;;;;;5011522;28;20713;-60
2021/01/18 10:50:59;;;;;;;10.07;3.97;;;4.40;99.90;;;;;;5011603;28;20190;-60
2021/01/18 10:53:30;;;;;;;1.80;0.20;;;4.40;99.90;;;;;;5012761;28;20190;-61
2021/01/18 10:56:15;;;;;;;3.88;1.33;;;4.40;99.90;;;;;;5012227;28;20245;-61
2021/01/18 10:58:41;;;;;;;1.73;0.20;;;4.50;99.90;;;;;;5012628;28;20839;-61
2021/01/18 11:01:12;;;;;;;2.70;1.20;;;4.60;99.90;;;;;;5011711;28;20723;-60
2021/01/18 11:03:38;;;;;;;6.00;2.95;;;4.50;99.90;;;;;;5014587;28;20237;-60
2021/01/18 11:06:10;;;;;;;2.10;0.60;;;4.50;99.90;;;;;;5014018;28;20218;-61
2021/01/18 11:08:35;;;;;;;1.70;0.20;;;4.50;99.90;;;;;;5016084;28;20228;-61
2021/01/18 11:11:04;;;;;;;1.97;0.80;;;4.50;99.90;;;;;;5016415;28;20229;-61
2021/01/18 11:13:30;;;;;;;9.00;3.10;;;4.40;99.90;;;;;;5017392;28;20709;-61
2021/01/18 11:15:55;;;;;;;2.77;2.20;;;4.30;99.90;;;;;;5017238;28;20206;-60
2021/01/18 11:18:21;;;;;;;5.63;3.20;;;4.40;99.90;;;;;;5015684;28;20237;-61
2021/01/18 11:20:52;;;;;;;15.23;7.97;;;4.40;99.90;;;;;;5015920;28;20233;-60
2021/01/18 11:23:17;;;;;;;11.50;3.92;;;4.40;99.90;;;;;;5015781;28;20183;-60
2021/01/18 11:25:43;;;;;;;5.57;2.43;;;4.40;99.90;;;;;;5014883;28;20202;-61
2021/01/18 11:28:14;;;;;;;2.17;0.53;;;4.30;99.90;;;;;;5013405;28;20214;-60
2021/01/18 11:30:41;;;;;;;1.80;0.30;;;4.30;99.90;;;;;;5023969;28;20680;-61
2021/01/18 11:33:10;;;;;;;2.47;2.15;;;4.30;99.90;;;;;;5016032;28;20225;-61
2021/01/18 11:35:41;;;;;;;1.70;0.20;;;4.40;99.90;;;;;;5017728;28;20226;-60
2021/01/18 11:38:08;;;;;;;4.03;0.80;;;4.30;99.90;;;;;;5013933;28;20851;-61
2021/01/18 11:40:33;;;;;;;3.45;2.45;;;4.30;99.90;;;;;;5014805;28;20217;-61
2021/01/18 11:42:59;;;;;;;5.40;2.77;;;4.30;99.90;;;;;;5015140;28;20638;-61
2021/01/18 11:45:25;;;;;;;3.60;2.00;;;4.30;99.90;;;;;;5014260;28;20186;-61
2021/01/18 11:47:51;;;;;;;3.55;1.75;;;4.30;99.90;;;;;;5012987;28;20214;-61
2021/01/18 11:50:16;;;;;;;3.90;0.97;;;4.30;99.90;;;;;;5014684;28;20236;-60
2021/01/18 11:52:47;;;;;;;11.57;7.70;;;4.40;99.90;;;;;;5016343;28;20477;-61
2021/01/18 11:55:14;;;;;;;2.33;2.05;;;4.30;99.90;;;;;;5013643;28;20716;-60
2021/01/18 11:57:44;;;;;;;4.88;4.13;;;4.40;99.90;;;;;;5014830;28;20341;-61
2021/01/18 12:00:12;;;;;;;1.80;0.20;;;4.40;99.90;;;;;;5019082;28;20369;-61
2021/01/18 12:02:37;;;;;;;11.93;4.68;;;4.50;99.90;;;;;;5016411;28;20179;-60
2021/01/18 12:05:04;;;;;;;8.67;5.20;;;4.50;99.90;;;;;;5016798;28;20212;-60
2021/01/18 12:07:30;;;;;;;2.00;0.68;;;4.40;99.90;;;;;;5014511;28;20222;-60
2021/01/18 12:09:55;;;;;;;1.70;0.20;;;4.50;99.90;;;;;;5013564;28;20190;-60
2021/01/18 12:12:21;;;;;;;7.43;3.90;;;4.60;99.90;;;;;;5015773;28;20186;-60
2021/01/18 12:14:47;;;;;;;9.93;4.80;;;4.60;99.90;;;;;;5013151;28;20241;-61
2021/01/18 12:17:13;;;;;;;5.40;2.03;;;4.60;99.90;;;;;;5013036;28;20237;-61
2021/01/18 12:19:38;;;;;;;9.25;4.90;;;4.70;99.90;;;;;;5017569;28;20178;-60
2021/01/18 12:22:04;;;;;;;10.63;5.70;;;4.60;99.90;;;;;;5020139;28;20768;-61
2021/01/18 12:24:29;;;;;;;9.90;6.33;;;4.60;99.90;;;;;;5020686;28;20654;-60
2021/01/18 12:26:55;;;;;;;1.70;0.20;;;4.60;99.90;;;;;;5022463;28;20190;-60
2021/01/18 12:29:21;;;;;;;6.93;3.80;;;4.70;99.90;;;;;;5022909;28;20316;-61
2021/01/18 12:31:47;;;;;;;1.77;0.27;;;4.70;99.90;;;;;;5026162;28;20187;-60
2021/01/18 12:34:13;;;;;;;1.70;0.20;;;4.70;99.90;;;;;;5017505;28;20460;-60
2021/01/18 12:36:39;;;;;;;1.73;0.27;;;4.70;99.90;;;;;;5018612;28;20554;-61
2021/01/18 12:39:13;;;;;;;2.73;1.33;;;4.70;99.90;;;;;;5014450;28;20241;-59
2021/01/18 12:41:39;;;;;;;1.70;0.20;;;4.70;99.90;;;;;;5014834;28;20266;-60
2021/01/18 12:44:06;;;;;;;25.13;1.87;;;4.70;99.90;;;;;;5013540;28;20206;-60
2021/01/18 12:46:32;;;;;;;1.90;0.60;;;4.70;99.90;;;;;;5013426;28;20190;-59
2021/01/18 12:48:58;;;;;;;1.80;0.40;;;4.60;99.90;;;;;;5015205;28;20210;-60
2021/01/18 12:51:23;;;;;;;10.03;4.10;;;4.70;99.90;;;;;;5017295;28;20218;-60
2021/01/18 12:53:49;;;;;;;9.13;3.20;;;4.60;99.90;;;;;;5017055;28;20174;-60
2021/01/18 12:56:33;;;;;;;2.70;1.63;;;4.60;99.90;;;;;;5018723;28;20230;-60
2021/01/18 12:58:59;;;;;;;5.30;2.42;;;4.60;99.90;;;;;;5017346;28;20556;-60
2021/01/18 13:01:28;;;;;;;3.63;1.83;;;4.70;99.90;;;;;;5024003;28;20193;-62
2021/01/18 13:03:53;;;;;;;3.85;2.22;;;4.70;99.90;;;;;;5021403;28;20433;-65
2021/01/18 13:06:20;;;;;;;1.70;0.20;;;4.80;99.90;;;;;;5020001;28;20193;-60
2021/01/18 13:08:47;;;;;;;8.57;4.25;;;4.90;99.90;;;;;;5017087;28;20213;-62
2021/01/18 13:11:13;;;;;;;5.15;1.40;;;4.90;99.90;;;;;;5014751;28;20248;-60
2021/01/18 13:13:40;;;;;;;1.70;0.20;;;5.00;99.90;;;;;;5014430;28;20642;-60
2021/01/18 13:16:06;;;;;;;6.28;3.92;;;5.00;99.90;;;;;;5014700;28;20202;-60
2021/01/18 13:18:31;;;;;;;1.73;0.20;;;5.00;99.90;;;;;;5012638;28;20217;-60
2021/01/18 13:20:57;;;;;;;2.57;0.57;;;5.00;99.90;;;;;;5013539;28;20261;-60